Terminal Aerodrome Forecast
Issued by NWS

Home | Current Version | Previous Version | Text Only | Print | Product List | Glossary On
Versions: 1 2 3 4 5 6 7 8 9 10 11 12 13 14
980
FTUS45 KVEF 200636 AAA
TAFVGT
TAF AMD
KVGT 200636Z 2007/2106 32012G20KT P6SM BKN080
     FM201200 34018G26KT P6SM FEW080
     FM202200 34010G17KT P6SM SKC
     FM210200 33007KT P6SM SKC=

USA.gov is the U.S. government's official web portal to all federal, state and local government web resources and services.